sensor_id;sensor_type;location;lat;lon;timestamp;P1;durP1;ratioP1;P2;durP2;ratioP2
8572;SDS011;4324;42.012;24.872;2022-08-07T00:01:18;9.00;;;8.30;;
8572;SDS011;4324;42.012;24.872;2022-08-07T00:03:45;8.93;;;8.10;;
8572;SDS011;4324;42.012;24.872;2022-08-07T00:06:12;9.13;;;8.50;;
8572;SDS011;4324;42.012;24.872;2022-08-07T00:08:40;8.87;;;8.00;;
8572;SDS011;4324;42.012;24.872;2022-08-07T00:11:07;7.97;;;7.47;;
8572;SDS011;4324;42.012;24.872;2022-08-07T00:13:33;8.80;;;8.07;;
8572;SDS011;4324;42.012;24.872;2022-08-07T00:16:03;9.10;;;8.30;;
8572;SDS011;4324;42.012;24.872;2022-08-07T00:18:30;9.67;;;8.87;;
8572;SDS011;4324;42.012;24.872;2022-08-07T00:20:58;8.17;;;7.57;;
8572;SDS011;4324;42.012;24.872;2022-08-07T00:23:27;9.57;;;8.70;;
8572;SDS011;4324;42.012;24.872;2022-08-07T00:25:54;9.43;;;8.53;;
8572;SDS011;4324;42.012;24.872;2022-08-07T00:28:21;9.03;;;8.33;;
8572;SDS011;4324;42.012;24.872;2022-08-07T00:30:48;8.57;;;7.87;;
8572;SDS011;4324;42.012;24.872;2022-08-07T00:33:17;8.93;;;8.23;;
8572;SDS011;4324;42.012;24.872;2022-08-07T00:35:43;9.37;;;8.67;;
8572;SDS011;4324;42.012;24.872;2022-08-07T00:38:10;9.70;;;8.87;;
8572;SDS011;4324;42.012;24.872;2022-08-07T00:40:37;8.73;;;8.03;;
8572;SDS011;4324;42.012;24.872;2022-08-07T00:43:04;9.33;;;8.53;;
8572;SDS011;4324;42.012;24.872;2022-08-07T00:45:31;9.10;;;8.30;;
8572;SDS011;4324;42.012;24.872;2022-08-07T00:47:59;8.77;;;8.17;;
8572;SDS011;4324;42.012;24.872;2022-08-07T00:50:27;9.77;;;8.97;;
8572;SDS011;4324;42.012;24.872;2022-08-07T00:52:54;9.63;;;8.93;;
8572;SDS011;4324;42.012;24.872;2022-08-07T00:55:21;9.20;;;8.50;;
8572;SDS011;4324;42.012;24.872;2022-08-07T00:57:48;9.60;;;8.90;;
8572;SDS011;4324;42.012;24.872;2022-08-07T01:00:16;9.07;;;8.30;;
8572;SDS011;4324;42.012;24.872;2022-08-07T01:02:44;9.17;;;8.47;;
8572;SDS011;4324;42.012;24.872;2022-08-07T01:05:11;9.87;;;9.07;;
8572;SDS011;4324;42.012;24.872;2022-08-07T01:07:39;9.13;;;8.47;;
8572;SDS011;4324;42.012;24.872;2022-08-07T01:10:07;9.73;;;8.93;;
8572;SDS011;4324;42.012;24.872;2022-08-07T01:12:35;10.23;;;9.40;;
8572;SDS011;4324;42.012;24.872;2022-08-07T01:15:03;8.90;;;8.30;;
8572;SDS011;4324;42.012;24.872;2022-08-07T01:17:31;9.27;;;8.47;;
8572;SDS011;4324;42.012;24.872;2022-08-07T01:20:00;10.07;;;9.27;;
8572;SDS011;4324;42.012;24.872;2022-08-07T01:22:32;9.50;;;8.80;;
8572;SDS011;4324;42.012;24.872;2022-08-07T01:24:59;9.33;;;8.63;;
8572;SDS011;4324;42.012;24.872;2022-08-07T01:27:27;10.00;;;9.20;;
8572;SDS011;4324;42.012;24.872;2022-08-07T01:29:54;9.23;;;8.53;;
8572;SDS011;4324;42.012;24.872;2022-08-07T01:32:21;9.37;;;8.57;;
8572;SDS011;4324;42.012;24.872;2022-08-07T01:34:48;9.70;;;9.00;;
8572;SDS011;4324;42.012;24.872;2022-08-07T01:37:16;11.00;;;10.20;;
8572;SDS011;4324;42.012;24.872;2022-08-07T01:39:45;10.97;;;10.07;;
8572;SDS011;4324;42.012;24.872;2022-08-07T01:42:13;9.70;;;9.00;;
8572;SDS011;4324;42.012;24.872;2022-08-07T01:44:40;9.07;;;8.40;;
8572;SDS011;4324;42.012;24.872;2022-08-07T01:47:07;9.60;;;8.80;;
8572;SDS011;4324;42.012;24.872;2022-08-07T01:49:34;9.30;;;8.60;;
8572;SDS011;4324;42.012;24.872;2022-08-07T01:52:03;9.63;;;8.93;;
8572;SDS011;4324;42.012;24.872;2022-08-07T01:54:34;10.00;;;9.10;;
8572;SDS011;4324;42.012;24.872;2022-08-07T01:57:04;9.53;;;8.73;;
8572;SDS011;4324;42.012;24.872;2022-08-07T01:59:35;9.57;;;8.63;;
8572;SDS011;4324;42.012;24.872;2022-08-07T02:02:09;9.00;;;8.40;;
8572;SDS011;4324;42.012;24.872;2022-08-07T02:04:42;9.23;;;8.53;;
8572;SDS011;4324;42.012;24.872;2022-08-07T02:07:14;9.30;;;8.60;;
8572;SDS011;4324;42.012;24.872;2022-08-07T02:09:44;9.33;;;8.63;;
8572;SDS011;4324;42.012;24.872;2022-08-07T02:12:13;9.30;;;8.60;;
8572;SDS011;4324;42.012;24.872;2022-08-07T02:14:43;9.70;;;8.80;;
8572;SDS011;4324;42.012;24.872;2022-08-07T02:17:11;9.77;;;8.97;;
8572;SDS011;4324;42.012;24.872;2022-08-07T02:19:40;9.53;;;8.83;;
8572;SDS011;4324;42.012;24.872;2022-08-07T02:22:09;10.53;;;9.50;;
8572;SDS011;4324;42.012;24.872;2022-08-07T02:24:38;9.70;;;9.00;;
8572;SDS011;4324;42.012;24.872;2022-08-07T02:27:07;9.50;;;8.80;;
8572;SDS011;4324;42.012;24.872;2022-08-07T02:29:37;10.17;;;9.47;;
8572;SDS011;4324;42.012;24.872;2022-08-07T02:32:05;10.03;;;9.10;;
8572;SDS011;4324;42.012;24.872;2022-08-07T02:34:34;10.60;;;9.80;;
8572;SDS011;4324;42.012;24.872;2022-08-07T02:37:04;10.50;;;9.70;;
8572;SDS011;4324;42.012;24.872;2022-08-07T02:39:33;9.93;;;9.07;;
8572;SDS011;4324;42.012;24.872;2022-08-07T02:42:03;9.43;;;8.73;;
8572;SDS011;4324;42.012;24.872;2022-08-07T02:44:31;10.07;;;9.27;;
8572;SDS011;4324;42.012;24.872;2022-08-07T02:47:00;9.90;;;9.10;;
8572;SDS011;4324;42.012;24.872;2022-08-07T02:49:29;9.57;;;8.87;;
8572;SDS011;4324;42.012;24.872;2022-08-07T02:51:56;9.90;;;9.10;;
8572;SDS011;4324;42.012;24.872;2022-08-07T02:54:24;10.47;;;9.47;;
8572;SDS011;4324;42.012;24.872;2022-08-07T02:56:54;10.17;;;9.37;;
8572;SDS011;4324;42.012;24.872;2022-08-07T02:59:24;11.03;;;10.03;;
8572;SDS011;4324;42.012;24.872;2022-08-07T03:01:52;10.20;;;9.40;;
8572;SDS011;4324;42.012;24.872;2022-08-07T03:04:22;11.50;;;10.37;;
8572;SDS011;4324;42.012;24.872;2022-08-07T03:06:49;11.33;;;10.37;;
8572;SDS011;4324;42.012;24.872;2022-08-07T03:09:18;10.43;;;9.43;;
8572;SDS011;4324;42.012;24.872;2022-08-07T03:11:46;10.13;;;9.30;;
8572;SDS011;4324;42.012;24.872;2022-08-07T03:14:14;10.77;;;9.90;;
8572;SDS011;4324;42.012;24.872;2022-08-07T03:16:42;10.63;;;9.63;;
8572;SDS011;4324;42.012;24.872;2022-08-07T03:19:10;10.60;;;9.70;;
8572;SDS011;4324;42.012;24.872;2022-08-07T03:21:39;10.07;;;9.27;;
8572;SDS011;4324;42.012;24.872;2022-08-07T03:24:06;11.07;;;9.60;;
8572;SDS011;4324;42.012;24.872;2022-08-07T03:26:33;10.10;;;9.30;;
8572;SDS011;4324;42.012;24.872;2022-08-07T03:29:04;10.67;;;9.63;;
8572;SDS011;4324;42.012;24.872;2022-08-07T03:31:33;10.77;;;9.80;;
8572;SDS011;4324;42.012;24.872;2022-08-07T03:34:02;10.27;;;9.47;;
8572;SDS011;4324;42.012;24.872;2022-08-07T03:36:31;11.40;;;9.80;;
8572;SDS011;4324;42.012;24.872;2022-08-07T03:39:03;11.27;;;10.40;;
8572;SDS011;4324;42.012;24.872;2022-08-07T03:41:34;10.43;;;9.63;;
8572;SDS011;4324;42.012;24.872;2022-08-07T03:44:01;10.60;;;9.70;;
8572;SDS011;4324;42.012;24.872;2022-08-07T03:46:29;10.37;;;9.57;;
8572;SDS011;4324;42.012;24.872;2022-08-07T03:48:57;9.83;;;9.13;;
8572;SDS011;4324;42.012;24.872;2022-08-07T03:51:25;10.03;;;9.20;;
8572;SDS011;4324;42.012;24.872;2022-08-07T03:53:53;10.57;;;9.67;;
8572;SDS011;4324;42.012;24.872;2022-08-07T03:56:21;10.33;;;9.53;;
8572;SDS011;4324;42.012;24.872;2022-08-07T03:58:50;10.50;;;9.60;;
8572;SDS011;4324;42.012;24.872;2022-08-07T04:01:17;9.77;;;8.97;;
8572;SDS011;4324;42.012;24.872;2022-08-07T04:03:46;9.90;;;9.10;;
8572;SDS011;4324;42.012;24.872;2022-08-07T04:06:14;10.00;;;9.20;;
8572;SDS011;4324;42.012;24.872;2022-08-07T04:08:41;10.53;;;9.57;;
8572;SDS011;4324;42.012;24.872;2022-08-07T04:11:09;10.77;;;9.97;;
8572;SDS011;4324;42.012;24.872;2022-08-07T04:13:38;10.70;;;9.80;;
8572;SDS011;4324;42.012;24.872;2022-08-07T04:16:06;11.20;;;10.30;;
8572;SDS011;4324;42.012;24.872;2022-08-07T04:18:33;10.57;;;9.67;;
8572;SDS011;4324;42.012;24.872;2022-08-07T04:21:00;10.80;;;9.83;;
8572;SDS011;4324;42.012;24.872;2022-08-07T04:23:27;10.83;;;9.83;;
8572;SDS011;4324;42.012;24.872;2022-08-07T04:25:57;9.97;;;9.27;;
8572;SDS011;4324;42.012;24.872;2022-08-07T04:28:24;10.37;;;9.57;;
8572;SDS011;4324;42.012;24.872;2022-08-07T04:30:53;16.30;;;10.00;;
8572;SDS011;4324;42.012;24.872;2022-08-07T04:33:20;9.57;;;8.87;;
8572;SDS011;4324;42.012;24.872;2022-08-07T04:35:50;20.23;;;10.63;;
8572;SDS011;4324;42.012;24.872;2022-08-07T04:38:17;10.13;;;9.23;;
8572;SDS011;4324;42.012;24.872;2022-08-07T04:40:45;10.00;;;9.30;;
8572;SDS011;4324;42.012;24.872;2022-08-07T04:43:12;10.13;;;9.13;;
8572;SDS011;4324;42.012;24.872;2022-08-07T04:45:44;10.70;;;9.90;;
8572;SDS011;4324;42.012;24.872;2022-08-07T04:48:19;10.93;;;9.90;;
8572;SDS011;4324;42.012;24.872;2022-08-07T04:50:55;10.40;;;9.60;;
8572;SDS011;4324;42.012;24.872;2022-08-07T04:53:30;10.77;;;9.63;;
8572;SDS011;4324;42.012;24.872;2022-08-07T04:56:04;10.47;;;9.57;;
8572;SDS011;4324;42.012;24.872;2022-08-07T04:58:43;10.20;;;9.40;;
8572;SDS011;4324;42.012;24.872;2022-08-07T05:01:16;10.30;;;9.50;;
8572;SDS011;4324;42.012;24.872;2022-08-07T05:03:50;9.53;;;8.73;;
8572;SDS011;4324;42.012;24.872;2022-08-07T05:06:22;10.07;;;9.27;;
8572;SDS011;4324;42.012;24.872;2022-08-07T05:08:56;10.27;;;9.47;;
8572;SDS011;4324;42.012;24.872;2022-08-07T05:11:29;10.37;;;9.57;;
8572;SDS011;4324;42.012;24.872;2022-08-07T05:14:00;10.60;;;9.70;;
8572;SDS011;4324;42.012;24.872;2022-08-07T05:16:31;9.70;;;9.00;;
8572;SDS011;4324;42.012;24.872;2022-08-07T05:19:06;10.03;;;9.23;;
8572;SDS011;4324;42.012;24.872;2022-08-07T05:21:37;11.03;;;9.93;;
8572;SDS011;4324;42.012;24.872;2022-08-07T05:24:11;10.97;;;10.17;;
8572;SDS011;4324;42.012;24.872;2022-08-07T05:26:41;11.50;;;10.50;;
8572;SDS011;4324;42.012;24.872;2022-08-07T05:29:10;11.07;;;10.17;;
8572;SDS011;4324;42.012;24.872;2022-08-07T05:31:41;10.27;;;9.47;;
8572;SDS011;4324;42.012;24.872;2022-08-07T05:34:13;10.30;;;9.50;;
8572;SDS011;4324;42.012;24.872;2022-08-07T05:36:42;11.50;;;10.47;;
8572;SDS011;4324;42.012;24.872;2022-08-07T05:39:11;10.00;;;9.17;;
8572;SDS011;4324;42.012;24.872;2022-08-07T05:41:41;14.37;;;13.20;;
8572;SDS011;4324;42.012;24.872;2022-08-07T05:44:08;11.37;;;10.43;;
8572;SDS011;4324;42.012;24.872;2022-08-07T05:46:38;11.10;;;10.20;;
8572;SDS011;4324;42.012;24.872;2022-08-07T05:49:07;10.83;;;9.93;;
8572;SDS011;4324;42.012;24.872;2022-08-07T05:51:37;10.60;;;9.70;;
8572;SDS011;4324;42.012;24.872;2022-08-07T05:54:04;10.90;;;10.00;;
8572;SDS011;4324;42.012;24.872;2022-08-07T05:56:31;11.03;;;10.13;;
8572;SDS011;4324;42.012;24.872;2022-08-07T05:59:01;11.30;;;10.50;;
8572;SDS011;4324;42.012;24.872;2022-08-07T06:01:34;11.37;;;10.37;;
8572;SDS011;4324;42.012;24.872;2022-08-07T06:04:01;11.27;;;10.40;;
8572;SDS011;4324;42.012;24.872;2022-08-07T06:06:30;11.20;;;10.20;;
8572;SDS011;4324;42.012;24.872;2022-08-07T06:09:01;10.73;;;9.93;;
8572;SDS011;4324;42.012;24.872;2022-08-07T06:11:29;11.10;;;10.20;;
8572;SDS011;4324;42.012;24.872;2022-08-07T06:13:57;10.00;;;9.30;;
8572;SDS011;4324;42.012;24.872;2022-08-07T06:16:26;10.97;;;9.87;;
8572;SDS011;4324;42.012;24.872;2022-08-07T06:18:57;11.00;;;10.10;;
8572;SDS011;4324;42.012;24.872;2022-08-07T06:21:26;10.67;;;9.77;;
8572;SDS011;4324;42.012;24.872;2022-08-07T06:23:53;12.83;;;11.80;;
8572;SDS011;4324;42.012;24.872;2022-08-07T06:26:21;11.03;;;10.33;;
8572;SDS011;4324;42.012;24.872;2022-08-07T06:28:49;11.10;;;10.20;;
8572;SDS011;4324;42.012;24.872;2022-08-07T06:31:17;15.83;;;14.30;;
8572;SDS011;4324;42.012;24.872;2022-08-07T06:33:44;13.83;;;12.63;;
8572;SDS011;4324;42.012;24.872;2022-08-07T06:36:12;13.77;;;12.77;;
8572;SDS011;4324;42.012;24.872;2022-08-07T06:38:39;11.70;;;10.80;;
8572;SDS011;4324;42.012;24.872;2022-08-07T06:41:10;11.57;;;10.47;;
8572;SDS011;4324;42.012;24.872;2022-08-07T06:43:42;11.63;;;10.73;;
8572;SDS011;4324;42.012;24.872;2022-08-07T06:46:11;11.50;;;10.70;;
8572;SDS011;4324;42.012;24.872;2022-08-07T06:48:38;12.23;;;11.17;;
8572;SDS011;4324;42.012;24.872;2022-08-07T06:51:07;11.30;;;10.40;;
8572;SDS011;4324;42.012;24.872;2022-08-07T06:53:36;11.43;;;10.53;;
8572;SDS011;4324;42.012;24.872;2022-08-07T06:56:07;12.00;;;11.00;;
8572;SDS011;4324;42.012;24.872;2022-08-07T06:58:35;11.80;;;10.73;;
8572;SDS011;4324;42.012;24.872;2022-08-07T07:01:06;11.60;;;10.80;;
8572;SDS011;4324;42.012;24.872;2022-08-07T07:03:38;11.73;;;10.80;;
8572;SDS011;4324;42.012;24.872;2022-08-07T07:06:06;12.43;;;11.43;;
8572;SDS011;4324;42.012;24.872;2022-08-07T07:08:34;12.60;;;11.63;;
8572;SDS011;4324;42.012;24.872;2022-08-07T07:11:02;11.90;;;10.80;;
8572;SDS011;4324;42.012;24.872;2022-08-07T07:13:32;11.17;;;10.30;;
8572;SDS011;4324;42.012;24.872;2022-08-07T07:16:03;10.57;;;9.53;;
8572;SDS011;4324;42.012;24.872;2022-08-07T07:18:39;10.23;;;9.43;;
8572;SDS011;4324;42.012;24.872;2022-08-07T07:21:10;10.73;;;9.87;;
8572;SDS011;4324;42.012;24.872;2022-08-07T07:23:41;10.90;;;10.10;;
8572;SDS011;4324;42.012;24.872;2022-08-07T07:26:10;10.27;;;9.48;;
8572;SDS011;4324;42.012;24.872;2022-08-07T07:28:43;10.80;;;10.00;;
8572;SDS011;4324;42.012;24.872;2022-08-07T07:31:18;10.77;;;9.93;;
8572;SDS011;4324;42.012;24.872;2022-08-07T07:33:51;11.43;;;10.43;;
8572;SDS011;4324;42.012;24.872;2022-08-07T07:36:21;11.07;;;10.07;;
8572;SDS011;4324;42.012;24.872;2022-08-07T07:38:50;10.90;;;9.93;;
8572;SDS011;4324;42.012;24.872;2022-08-07T07:41:18;11.30;;;10.37;;
8572;SDS011;4324;42.012;24.872;2022-08-07T07:43:52;11.13;;;10.23;;
8572;SDS011;4324;42.012;24.872;2022-08-07T07:46:23;10.43;;;9.60;;
8572;SDS011;4324;42.012;24.872;2022-08-07T07:48:51;10.20;;;9.40;;
8572;SDS011;4324;42.012;24.872;2022-08-07T07:51:20;10.67;;;9.87;;
8572;SDS011;4324;42.012;24.872;2022-08-07T07:53:49;10.67;;;9.87;;
8572;SDS011;4324;42.012;24.872;2022-08-07T07:56:18;10.30;;;9.48;;
8572;SDS011;4324;42.012;24.872;2022-08-07T07:58:48;10.40;;;9.67;;
8572;SDS011;4324;42.012;24.872;2022-08-07T08:01:16;10.40;;;9.60;;
8572;SDS011;4324;42.012;24.872;2022-08-07T08:03:47;10.23;;;9.47;;
8572;SDS011;4324;42.012;24.872;2022-08-07T08:06:15;15.97;;;10.07;;
8572;SDS011;4324;42.012;24.872;2022-08-07T08:08:45;10.70;;;9.97;;
8572;SDS011;4324;42.012;24.872;2022-08-07T08:11:12;11.33;;;10.10;;
8572;SDS011;4324;42.012;24.872;2022-08-07T08:13:41;11.93;;;11.00;;
8572;SDS011;4324;42.012;24.872;2022-08-07T08:16:11;11.00;;;10.17;;
8572;SDS011;4324;42.012;24.872;2022-08-07T08:18:42;12.00;;;10.80;;
8572;SDS011;4324;42.012;24.872;2022-08-07T08:21:12;11.27;;;10.27;;
8572;SDS011;4324;42.012;24.872;2022-08-07T08:23:55;12.20;;;11.30;;
8572;SDS011;4324;42.012;24.872;2022-08-07T08:26:40;19.93;;;18.33;;
8572;SDS011;4324;42.012;24.872;2022-08-07T08:29:25;10.77;;;9.97;;
8572;SDS011;4324;42.012;24.872;2022-08-07T08:31:54;10.70;;;9.80;;
8572;SDS011;4324;42.012;24.872;2022-08-07T08:34:22;10.10;;;9.40;;
8572;SDS011;4324;42.012;24.872;2022-08-07T08:36:52;11.20;;;10.17;;
8572;SDS011;4324;42.012;24.872;2022-08-07T08:39:21;10.10;;;9.20;;
8572;SDS011;4324;42.012;24.872;2022-08-07T08:41:50;9.57;;;8.87;;
8572;SDS011;4324;42.012;24.872;2022-08-07T08:44:23;9.90;;;9.10;;
8572;SDS011;4324;42.012;24.872;2022-08-07T08:47:01;18.17;;;9.70;;
8572;SDS011;4324;42.012;24.872;2022-08-07T08:49:46;10.00;;;9.23;;
8572;SDS011;4324;42.012;24.872;2022-08-07T08:52:21;10.17;;;9.40;;
8572;SDS011;4324;42.012;24.872;2022-08-07T08:54:54;10.17;;;9.37;;
8572;SDS011;4324;42.012;24.872;2022-08-07T08:57:26;10.37;;;9.50;;
8572;SDS011;4324;42.012;24.872;2022-08-07T09:00:00;10.27;;;9.27;;
8572;SDS011;4324;42.012;24.872;2022-08-07T09:02:31;10.43;;;8.53;;
8572;SDS011;4324;42.012;24.872;2022-08-07T09:05:10;8.50;;;7.80;;
8572;SDS011;4324;42.012;24.872;2022-08-07T09:07:47;8.80;;;8.10;;
8572;SDS011;4324;42.012;24.872;2022-08-07T09:10:23;9.53;;;8.73;;
8572;SDS011;4324;42.012;24.872;2022-08-07T09:12:55;8.83;;;8.23;;
8572;SDS011;4324;42.012;24.872;2022-08-07T09:15:35;11.07;;;8.50;;
8572;SDS011;4324;42.012;24.872;2022-08-07T09:18:09;8.27;;;7.55;;
8572;SDS011;4324;42.012;24.872;2022-08-07T09:20:46;8.50;;;7.82;;
8572;SDS011;4324;42.012;24.872;2022-08-07T09:23:25;8.60;;;7.73;;
8572;SDS011;4324;42.012;24.872;2022-08-07T09:26:03;8.40;;;7.70;;
8572;SDS011;4324;42.012;24.872;2022-08-07T09:28:42;8.77;;;8.18;;
8572;SDS011;4324;42.012;24.872;2022-08-07T09:31:14;8.90;;;8.10;;
8572;SDS011;4324;42.012;24.872;2022-08-07T09:33:49;8.23;;;7.63;;
8572;SDS011;4324;42.012;24.872;2022-08-07T09:36:27;9.45;;;8.63;;
8572;SDS011;4324;42.012;24.872;2022-08-07T09:39:02;7.87;;;7.27;;
8572;SDS011;4324;42.012;24.872;2022-08-07T09:41:51;8.70;;;8.00;;
8572;SDS011;4324;42.012;24.872;2022-08-07T09:44:29;8.10;;;7.40;;
8572;SDS011;4324;42.012;24.872;2022-08-07T09:47:06;7.25;;;6.75;;
8572;SDS011;4324;42.012;24.872;2022-08-07T09:49:41;10.27;;;9.27;;
8572;SDS011;4324;42.012;24.872;2022-08-07T09:52:19;8.20;;;7.40;;
8572;SDS011;4324;42.012;24.872;2022-08-07T09:54:55;7.53;;;6.93;;
8572;SDS011;4324;42.012;24.872;2022-08-07T10:00:18;7.37;;;6.77;;
8572;SDS011;4324;42.012;24.872;2022-08-07T10:05:52;7.75;;;7.15;;
8572;SDS011;4324;42.012;24.872;2022-08-07T10:08:40;7.20;;;6.70;;
8572;SDS011;4324;42.012;24.872;2022-08-07T10:11:32;7.20;;;6.70;;
8572;SDS011;4324;42.012;24.872;2022-08-07T10:14:13;6.95;;;6.45;;
8572;SDS011;4324;42.012;24.872;2022-08-07T10:17:00;6.95;;;6.45;;
8572;SDS011;4324;42.012;24.872;2022-08-07T10:19:39;6.63;;;6.22;;
8572;SDS011;4324;42.012;24.872;2022-08-07T10:22:45;7.25;;;6.65;;
8572;SDS011;4324;42.012;24.872;2022-08-07T10:25:30;7.57;;;6.88;;
8572;SDS011;4324;42.012;24.872;2022-08-07T10:28:14;7.10;;;6.50;;
8572;SDS011;4324;42.012;24.872;2022-08-07T10:30:55;7.45;;;6.85;;
8572;SDS011;4324;42.012;24.872;2022-08-07T10:33:37;7.03;;;6.53;;
8572;SDS011;4324;42.012;24.872;2022-08-07T10:36:23;7.15;;;6.55;;
8572;SDS011;4324;42.012;24.872;2022-08-07T10:39:04;8.73;;;7.93;;
8572;SDS011;4324;42.012;24.872;2022-08-07T10:41:39;7.53;;;6.93;;
8572;SDS011;4324;42.012;24.872;2022-08-07T10:44:14;8.48;;;7.78;;
8572;SDS011;4324;42.012;24.872;2022-08-07T10:46:46;7.00;;;6.60;;
8572;SDS011;4324;42.012;24.872;2022-08-07T10:49:19;7.72;;;7.07;;
8572;SDS011;4324;42.012;24.872;2022-08-07T10:51:52;7.30;;;6.72;;
8572;SDS011;4324;42.012;24.872;2022-08-07T10:54:25;8.15;;;7.38;;
8572;SDS011;4324;42.012;24.872;2022-08-07T10:57:02;7.35;;;6.85;;
8572;SDS011;4324;42.012;24.872;2022-08-07T10:59:57;9.73;;;8.93;;
8572;SDS011;4324;42.012;24.872;2022-08-07T11:02:31;7.88;;;7.25;;
8572;SDS011;4324;42.012;24.872;2022-08-07T11:07:58;7.93;;;7.32;;
8572;SDS011;4324;42.012;24.872;2022-08-07T11:10:33;7.18;;;6.68;;
8572;SDS011;4324;42.012;24.872;2022-08-07T11:13:07;7.63;;;7.13;;
8572;SDS011;4324;42.012;24.872;2022-08-07T11:15:41;7.63;;;7.03;;
8572;SDS011;4324;42.012;24.872;2022-08-07T11:18:13;7.40;;;6.90;;
8572;SDS011;4324;42.012;24.872;2022-08-07T11:20:46;8.15;;;7.55;;
8572;SDS011;4324;42.012;24.872;2022-08-07T11:23:20;8.57;;;7.93;;
8572;SDS011;4324;42.012;24.872;2022-08-07T11:25:52;8.38;;;7.78;;
8572;SDS011;4324;42.012;24.872;2022-08-07T11:28:25;8.40;;;7.80;;
8572;SDS011;4324;42.012;24.872;2022-08-07T11:30:58;8.80;;;8.05;;
8572;SDS011;4324;42.012;24.872;2022-08-07T11:33:33;7.93;;;7.32;;
8572;SDS011;4324;42.012;24.872;2022-08-07T11:36:12;8.40;;;7.75;;
8572;SDS011;4324;42.012;24.872;2022-08-07T11:38:52;8.00;;;7.40;;
8572;SDS011;4324;42.012;24.872;2022-08-07T11:41:31;7.88;;;7.38;;
8572;SDS011;4324;42.012;24.872;2022-08-07T11:44:08;8.13;;;7.53;;
8572;SDS011;4324;42.012;24.872;2022-08-07T11:46:45;7.82;;;7.20;;
8572;SDS011;4324;42.012;24.872;2022-08-07T11:55:25;7.80;;;7.20;;
8572;SDS011;4324;42.012;24.872;2022-08-07T11:58:05;7.93;;;7.43;;
8572;SDS011;4324;42.012;24.872;2022-08-07T12:00:44;8.60;;;7.80;;
8572;SDS011;4324;42.012;24.872;2022-08-07T12:03:46;8.13;;;7.45;;
8572;SDS011;4324;42.012;24.872;2022-08-07T12:06:33;7.72;;;7.03;;
8572;SDS011;4324;42.012;24.872;2022-08-07T12:09:11;7.88;;;7.18;;
8572;SDS011;4324;42.012;24.872;2022-08-07T12:11:43;8.23;;;7.43;;
8572;SDS011;4324;42.012;24.872;2022-08-07T12:14:14;7.63;;;7.03;;
8572;SDS011;4324;42.012;24.872;2022-08-07T12:16:45;7.18;;;6.57;;
8572;SDS011;4324;42.012;24.872;2022-08-07T12:19:20;7.28;;;6.78;;
8572;SDS011;4324;42.012;24.872;2022-08-07T12:22:01;7.15;;;6.65;;
8572;SDS011;4324;42.012;24.872;2022-08-07T12:24:33;7.07;;;6.53;;
8572;SDS011;4324;42.012;24.872;2022-08-07T12:27:27;7.40;;;6.90;;
8572;SDS011;4324;42.012;24.872;2022-08-07T12:30:00;7.60;;;7.00;;
8572;SDS011;4324;42.012;24.872;2022-08-07T12:32:30;7.03;;;6.53;;
8572;SDS011;4324;42.012;24.872;2022-08-07T12:35:05;7.35;;;6.75;;
8572;SDS011;4324;42.012;24.872;2022-08-07T12:37:35;7.13;;;6.63;;
8572;SDS011;4324;42.012;24.872;2022-08-07T12:40:05;7.38;;;6.80;;
8572;SDS011;4324;42.012;24.872;2022-08-07T12:42:34;7.13;;;6.60;;
8572;SDS011;4324;42.012;24.872;2022-08-07T12:45:04;7.63;;;7.03;;
8572;SDS011;4324;42.012;24.872;2022-08-07T12:47:37;8.10;;;7.50;;
8572;SDS011;4324;42.012;24.872;2022-08-07T12:50:17;7.35;;;6.68;;
8572;SDS011;4324;42.012;24.872;2022-08-07T12:52:56;6.90;;;6.35;;
8572;SDS011;4324;42.012;24.872;2022-08-07T12:55:30;6.78;;;6.28;;
8572;SDS011;4324;42.012;24.872;2022-08-07T12:58:01;7.75;;;7.15;;
8572;SDS011;4324;42.012;24.872;2022-08-07T13:00:35;8.60;;;7.80;;
8572;SDS011;4324;42.012;24.872;2022-08-07T13:03:12;7.45;;;6.85;;
8572;SDS011;4324;42.012;24.872;2022-08-07T13:05:58;10.60;;;7.45;;
8572;SDS011;4324;42.012;24.872;2022-08-07T13:08:35;7.80;;;7.30;;
8572;SDS011;4324;42.012;24.872;2022-08-07T13:11:14;8.57;;;7.93;;
8572;SDS011;4324;42.012;24.872;2022-08-07T13:13:57;7.63;;;7.03;;
8572;SDS011;4324;42.012;24.872;2022-08-07T13:16:31;8.63;;;7.82;;
8572;SDS011;4324;42.012;24.872;2022-08-07T13:19:07;8.27;;;7.63;;
8572;SDS011;4324;42.012;24.872;2022-08-07T13:21:46;7.10;;;6.60;;
8572;SDS011;4324;42.012;24.872;2022-08-07T13:24:20;7.82;;;7.22;;
8572;SDS011;4324;42.012;24.872;2022-08-07T13:26:53;8.85;;;8.15;;
8572;SDS011;4324;42.012;24.872;2022-08-07T13:29:26;8.02;;;7.40;;
8572;SDS011;4324;42.012;24.872;2022-08-07T13:32:00;7.47;;;6.88;;
8572;SDS011;4324;42.012;24.872;2022-08-07T13:34:36;8.98;;;8.27;;
8572;SDS011;4324;42.012;24.872;2022-08-07T13:37:17;8.02;;;7.32;;
8572;SDS011;4324;42.012;24.872;2022-08-07T13:39:55;8.85;;;8.05;;
8572;SDS011;4324;42.012;24.872;2022-08-07T13:42:31;7.60;;;7.00;;
8572;SDS011;4324;42.012;24.872;2022-08-07T13:45:02;9.65;;;8.85;;
8572;SDS011;4324;42.012;24.872;2022-08-07T13:47:33;12.57;;;11.27;;
8572;SDS011;4324;42.012;24.872;2022-08-07T13:50:02;9.65;;;8.95;;
8572;SDS011;4324;42.012;24.872;2022-08-07T13:52:37;9.48;;;8.68;;
8572;SDS011;4324;42.012;24.872;2022-08-07T13:55:07;10.32;;;9.27;;
8572;SDS011;4324;42.012;24.872;2022-08-07T13:57:37;11.07;;;9.98;;
8572;SDS011;4324;42.012;24.872;2022-08-07T14:00:06;10.45;;;9.60;;
8572;SDS011;4324;42.012;24.872;2022-08-07T14:02:34;9.50;;;8.77;;
8572;SDS011;4324;42.012;24.872;2022-08-07T14:05:03;10.80;;;9.85;;
8572;SDS011;4324;42.012;24.872;2022-08-07T14:07:38;11.02;;;10.02;;
8572;SDS011;4324;42.012;24.872;2022-08-07T14:10:08;10.07;;;9.27;;
8572;SDS011;4324;42.012;24.872;2022-08-07T14:12:37;11.05;;;10.05;;
8572;SDS011;4324;42.012;24.872;2022-08-07T14:15:26;10.70;;;9.73;;
8572;SDS011;4324;42.012;24.872;2022-08-07T14:17:55;10.27;;;9.38;;
8572;SDS011;4324;42.012;24.872;2022-08-07T14:20:27;9.98;;;9.00;;
8572;SDS011;4324;42.012;24.872;2022-08-07T14:23:02;9.98;;;9.23;;
8572;SDS011;4324;42.012;24.872;2022-08-07T14:25:32;9.80;;;8.88;;
8572;SDS011;4324;42.012;24.872;2022-08-07T14:28:02;10.50;;;9.73;;
8572;SDS011;4324;42.012;24.872;2022-08-07T14:30:31;9.48;;;8.77;;
8572;SDS011;4324;42.012;24.872;2022-08-07T14:33:00;10.05;;;9.07;;
8572;SDS011;4324;42.012;24.872;2022-08-07T14:35:30;9.25;;;8.48;;
8572;SDS011;4324;42.012;24.872;2022-08-07T14:38:07;9.30;;;8.50;;
8572;SDS011;4324;42.012;24.872;2022-08-07T14:40:35;9.75;;;8.98;;
8572;SDS011;4324;42.012;24.872;2022-08-07T14:43:05;9.43;;;8.63;;
8572;SDS011;4324;42.012;24.872;2022-08-07T14:45:39;9.15;;;8.45;;
8572;SDS011;4324;42.012;24.872;2022-08-07T14:48:08;9.65;;;8.75;;
8572;SDS011;4324;42.012;24.872;2022-08-07T14:50:40;9.07;;;8.38;;
8572;SDS011;4324;42.012;24.872;2022-08-07T14:53:11;9.70;;;8.75;;
8572;SDS011;4324;42.012;24.872;2022-08-07T14:55:40;8.88;;;8.23;;
8572;SDS011;4324;42.012;24.872;2022-08-07T14:58:08;9.57;;;8.77;;
8572;SDS011;4324;42.012;24.872;2022-08-07T15:00:38;8.18;;;7.57;;
8572;SDS011;4324;42.012;24.872;2022-08-07T15:03:09;8.45;;;7.90;;
8572;SDS011;4324;42.012;24.872;2022-08-07T15:05:37;7.35;;;6.82;;
8572;SDS011;4324;42.012;24.872;2022-08-07T15:08:06;7.80;;;7.20;;
8572;SDS011;4324;42.012;24.872;2022-08-07T15:10:38;6.93;;;6.40;;
8572;SDS011;4324;42.012;24.872;2022-08-07T15:13:09;7.30;;;6.80;;
8572;SDS011;4324;42.012;24.872;2022-08-07T15:15:49;6.95;;;6.35;;
8572;SDS011;4324;42.012;24.872;2022-08-07T15:18:28;7.70;;;7.00;;
8572;SDS011;4324;42.012;24.872;2022-08-07T15:20:59;7.38;;;6.72;;
8572;SDS011;4324;42.012;24.872;2022-08-07T15:23:30;8.60;;;7.80;;
8572;SDS011;4324;42.012;24.872;2022-08-07T15:26:00;9.18;;;8.38;;
8572;SDS011;4324;42.012;24.872;2022-08-07T15:28:30;6.97;;;6.47;;
8572;SDS011;4324;42.012;24.872;2022-08-07T15:31:03;8.82;;;7.95;;
8572;SDS011;4324;42.012;24.872;2022-08-07T15:33:34;9.27;;;8.48;;
8572;SDS011;4324;42.012;24.872;2022-08-07T15:36:05;9.82;;;8.82;;